sensor_id;sensor_type;location;lat;lon;timestamp;temperature;humidity
3100;DHT22;1560;52.746;13.474;2023-04-25T00:00:19;8.80;99.90
3100;DHT22;1560;52.746;13.474;2023-04-25T00:05:26;8.70;99.90
3100;DHT22;1560;52.746;13.474;2023-04-25T00:07:58;8.70;99.90
3100;DHT22;1560;52.746;13.474;2023-04-25T00:10:27;8.80;99.90
3100;DHT22;1560;52.746;13.474;2023-04-25T00:12:56;8.70;99.90
3100;DHT22;1560;52.746;13.474;2023-04-25T00:15:26;8.70;99.90
3100;DHT22;1560;52.746;13.474;2023-04-25T00:17:55;8.70;99.90
3100;DHT22;1560;52.746;13.474;2023-04-25T00:20:24;8.70;99.90
3100;DHT22;1560;52.746;13.474;2023-04-25T00:25:29;8.70;99.90
3100;DHT22;1560;52.746;13.474;2023-04-25T00:28:00;8.70;99.90
3100;DHT22;1560;52.746;13.474;2023-04-25T00:30:29;8.70;99.90
3100;DHT22;1560;52.746;13.474;2023-04-25T00:35:37;8.70;99.90
3100;DHT22;1560;52.746;13.474;2023-04-25T00:38:06;8.70;99.90
3100;DHT22;1560;52.746;13.474;2023-04-25T00:43:16;8.70;99.90
3100;DHT22;1560;52.746;13.474;2023-04-25T00:45:46;8.60;99.90
3100;DHT22;1560;52.746;13.474;2023-04-25T00:48:16;8.70;99.90
3100;DHT22;1560;52.746;13.474;2023-04-25T00:50:49;8.60;99.90
3100;DHT22;1560;52.746;13.474;2023-04-25T00:55:56;8.70;99.90
3100;DHT22;1560;52.746;13.474;2023-04-25T00:58:25;8.60;99.90
3100;DHT22;1560;52.746;13.474;2023-04-25T01:03:40;8.60;99.90
3100;DHT22;1560;52.746;13.474;2023-04-25T01:06:10;8.60;99.90
3100;DHT22;1560;52.746;13.474;2023-04-25T01:08:40;8.50;99.90
3100;DHT22;1560;52.746;13.474;2023-04-25T01:11:09;8.50;99.90
3100;DHT22;1560;52.746;13.474;2023-04-25T01:13:38;8.50;99.90
3100;DHT22;1560;52.746;13.474;2023-04-25T01:16:08;8.50;99.90
3100;DHT22;1560;52.746;13.474;2023-04-25T01:18:38;8.50;99.90
3100;DHT22;1560;52.746;13.474;2023-04-25T01:21:10;8.50;99.90
3100;DHT22;1560;52.746;13.474;2023-04-25T01:23:39;8.40;99.90
3100;DHT22;1560;52.746;13.474;2023-04-25T01:28:47;8.40;99.90
3100;DHT22;1560;52.746;13.474;2023-04-25T01:31:17;8.40;99.90
3100;DHT22;1560;52.746;13.474;2023-04-25T01:33:47;8.40;99.90
3100;DHT22;1560;52.746;13.474;2023-04-25T01:36:16;8.40;99.90
3100;DHT22;1560;52.746;13.474;2023-04-25T01:41:23;8.40;99.90
3100;DHT22;1560;52.746;13.474;2023-04-25T01:43:52;8.40;99.90
3100;DHT22;1560;52.746;13.474;2023-04-25T01:48:59;8.40;99.90
3100;DHT22;1560;52.746;13.474;2023-04-25T01:51:29;8.30;99.90
3100;DHT22;1560;52.746;13.474;2023-04-25T01:54:00;8.30;99.90
3100;DHT22;1560;52.746;13.474;2023-04-25T01:56:31;8.30;99.90
3100;DHT22;1560;52.746;13.474;2023-04-25T02:01:38;8.30;99.90
3100;DHT22;1560;52.746;13.474;2023-04-25T02:04:07;8.20;99.90
3100;DHT22;1560;52.746;13.474;2023-04-25T02:06:36;8.20;99.90
3100;DHT22;1560;52.746;13.474;2023-04-25T02:11:45;8.30;99.90
3100;DHT22;1560;52.746;13.474;2023-04-25T02:14:14;8.30;99.90
3100;DHT22;1560;52.746;13.474;2023-04-25T02:16:43;8.30;99.90
3100;DHT22;1560;52.746;13.474;2023-04-25T02:19:12;8.30;99.90
3100;DHT22;1560;52.746;13.474;2023-04-25T02:21:41;8.20;99.90
3100;DHT22;1560;52.746;13.474;2023-04-25T02:26:47;8.20;99.90
3100;DHT22;1560;52.746;13.474;2023-04-25T02:29:17;8.20;99.90
3100;DHT22;1560;52.746;13.474;2023-04-25T02:31:46;8.30;99.90
3100;DHT22;1560;52.746;13.474;2023-04-25T02:36:54;8.20;99.90
3100;DHT22;1560;52.746;13.474;2023-04-25T02:39:23;8.20;99.90
3100;DHT22;1560;52.746;13.474;2023-04-25T02:41:54;8.30;99.90
3100;DHT22;1560;52.746;13.474;2023-04-25T02:44:24;8.30;99.90
3100;DHT22;1560;52.746;13.474;2023-04-25T02:46:52;8.30;99.90
3100;DHT22;1560;52.746;13.474;2023-04-25T02:49:21;8.30;99.90
3100;DHT22;1560;52.746;13.474;2023-04-25T02:51:50;8.30;99.90
3100;DHT22;1560;52.746;13.474;2023-04-25T02:56:58;8.30;99.90
3100;DHT22;1560;52.746;13.474;2023-04-25T02:59:28;8.30;99.90
3100;DHT22;1560;52.746;13.474;2023-04-25T03:01:57;8.30;99.90
3100;DHT22;1560;52.746;13.474;2023-04-25T03:07:06;8.20;99.90
3100;DHT22;1560;52.746;13.474;2023-04-25T03:09:35;8.20;99.90
3100;DHT22;1560;52.746;13.474;2023-04-25T03:12:05;8.20;99.90
3100;DHT22;1560;52.746;13.474;2023-04-25T03:14:34;8.20;99.90
3100;DHT22;1560;52.746;13.474;2023-04-25T03:19:39;8.20;99.90
3100;DHT22;1560;52.746;13.474;2023-04-25T03:22:08;8.10;99.90
3100;DHT22;1560;52.746;13.474;2023-04-25T03:24:37;8.10;99.90
3100;DHT22;1560;52.746;13.474;2023-04-25T03:27:07;8.10;99.90
3100;DHT22;1560;52.746;13.474;2023-04-25T03:29:36;8.10;99.90
3100;DHT22;1560;52.746;13.474;2023-04-25T03:32:05;8.10;99.90
3100;DHT22;1560;52.746;13.474;2023-04-25T03:34:35;8.10;99.90
3100;DHT22;1560;52.746;13.474;2023-04-25T03:37:03;8.00;99.90
3100;DHT22;1560;52.746;13.474;2023-04-25T03:39:32;8.10;99.90
3100;DHT22;1560;52.746;13.474;2023-04-25T03:44:39;8.10;99.90
3100;DHT22;1560;52.746;13.474;2023-04-25T03:47:07;8.20;99.90
3100;DHT22;1560;52.746;13.474;2023-04-25T03:49:36;8.10;99.90
3100;DHT22;1560;52.746;13.474;2023-04-25T03:52:05;8.20;99.90
3100;DHT22;1560;52.746;13.474;2023-04-25T03:54:34;8.10;99.90
3100;DHT22;1560;52.746;13.474;2023-04-25T03:57:03;8.20;99.90
3100;DHT22;1560;52.746;13.474;2023-04-25T03:59:33;8.20;99.90
3100;DHT22;1560;52.746;13.474;2023-04-25T04:04:40;8.20;99.90
3100;DHT22;1560;52.746;13.474;2023-04-25T04:09:49;8.20;99.90
3100;DHT22;1560;52.746;13.474;2023-04-25T04:12:18;8.20;99.90
3100;DHT22;1560;52.746;13.474;2023-04-25T04:14:47;8.20;99.90
3100;DHT22;1560;52.746;13.474;2023-04-25T04:17:16;8.20;99.90
3100;DHT22;1560;52.746;13.474;2023-04-25T04:22:24;8.20;99.90
3100;DHT22;1560;52.746;13.474;2023-04-25T04:24:53;8.10;99.90
3100;DHT22;1560;52.746;13.474;2023-04-25T04:27:22;8.10;99.90
3100;DHT22;1560;52.746;13.474;2023-04-25T04:29:51;8.10;99.90
3100;DHT22;1560;52.746;13.474;2023-04-25T04:34:59;8.00;99.90
3100;DHT22;1560;52.746;13.474;2023-04-25T04:40:08;8.10;99.90
3100;DHT22;1560;52.746;13.474;2023-04-25T04:42:39;8.10;99.90
3100;DHT22;1560;52.746;13.474;2023-04-25T04:45:10;8.10;99.90
3100;DHT22;1560;52.746;13.474;2023-04-25T04:50:21;8.10;99.90
3100;DHT22;1560;52.746;13.474;2023-04-25T04:52:50;8.10;99.90
3100;DHT22;1560;52.746;13.474;2023-04-25T04:55:19;8.10;99.90
3100;DHT22;1560;52.746;13.474;2023-04-25T04:57:48;8.10;99.90
3100;DHT22;1560;52.746;13.474;2023-04-25T05:00:18;8.10;99.90
3100;DHT22;1560;52.746;13.474;2023-04-25T05:02:48;8.10;99.90
3100;DHT22;1560;52.746;13.474;2023-04-25T05:05:17;8.10;99.90
3100;DHT22;1560;52.746;13.474;2023-04-25T05:07:59;8.10;99.90
3100;DHT22;1560;52.746;13.474;2023-04-25T05:10:31;8.10;99.90
3100;DHT22;1560;52.746;13.474;2023-04-25T05:13:00;8.10;99.90
3100;DHT22;1560;52.746;13.474;2023-04-25T05:18:07;8.10;99.90
3100;DHT22;1560;52.746;13.474;2023-04-25T05:23:14;8.10;99.90
3100;DHT22;1560;52.746;13.474;2023-04-25T05:25:43;8.00;99.90
3100;DHT22;1560;52.746;13.474;2023-04-25T05:28:13;8.00;99.90
3100;DHT22;1560;52.746;13.474;2023-04-25T05:30:42;8.10;99.90
3100;DHT22;1560;52.746;13.474;2023-04-25T05:33:11;8.00;99.90
3100;DHT22;1560;52.746;13.474;2023-04-25T05:35:40;8.10;99.90
3100;DHT22;1560;52.746;13.474;2023-04-25T05:40:51;8.20;99.90
3100;DHT22;1560;52.746;13.474;2023-04-25T05:43:20;8.10;99.90
3100;DHT22;1560;52.746;13.474;2023-04-25T05:45:48;8.20;99.90
3100;DHT22;1560;52.746;13.474;2023-04-25T05:48:18;8.10;99.90
3100;DHT22;1560;52.746;13.474;2023-04-25T05:53:26;8.10;99.90
3100;DHT22;1560;52.746;13.474;2023-04-25T05:55:54;8.10;99.90
3100;DHT22;1560;52.746;13.474;2023-04-25T06:01:02;8.10;99.90
3100;DHT22;1560;52.746;13.474;2023-04-25T06:03:31;8.10;99.90
3100;DHT22;1560;52.746;13.474;2023-04-25T06:06:00;8.10;99.90
3100;DHT22;1560;52.746;13.474;2023-04-25T06:08:28;8.10;99.90
3100;DHT22;1560;52.746;13.474;2023-04-25T06:10:57;8.20;99.90
3100;DHT22;1560;52.746;13.474;2023-04-25T06:16:05;8.20;99.90
3100;DHT22;1560;52.746;13.474;2023-04-25T06:21:13;8.20;99.90
3100;DHT22;1560;52.746;13.474;2023-04-25T06:23:41;8.20;99.90
3100;DHT22;1560;52.746;13.474;2023-04-25T06:26:10;8.10;99.90
3100;DHT22;1560;52.746;13.474;2023-04-25T06:28:39;8.10;99.90
3100;DHT22;1560;52.746;13.474;2023-04-25T06:33:45;8.10;99.90
3100;DHT22;1560;52.746;13.474;2023-04-25T06:36:13;8.10;99.90
3100;DHT22;1560;52.746;13.474;2023-04-25T06:41:21;8.10;99.90
3100;DHT22;1560;52.746;13.474;2023-04-25T06:43:50;8.10;99.90
3100;DHT22;1560;52.746;13.474;2023-04-25T06:46:18;8.10;99.90
3100;DHT22;1560;52.746;13.474;2023-04-25T06:48:47;8.10;99.90
3100;DHT22;1560;52.746;13.474;2023-04-25T06:51:16;8.10;99.90
3100;DHT22;1560;52.746;13.474;2023-04-25T06:53:45;8.10;99.90
3100;DHT22;1560;52.746;13.474;2023-04-25T06:56:14;8.10;99.90
3100;DHT22;1560;52.746;13.474;2023-04-25T06:58:43;8.20;99.90
3100;DHT22;1560;52.746;13.474;2023-04-25T07:01:12;8.20;99.90
3100;DHT22;1560;52.746;13.474;2023-04-25T07:06:18;8.20;99.90
3100;DHT22;1560;52.746;13.474;2023-04-25T07:08:47;8.30;99.90
3100;DHT22;1560;52.746;13.474;2023-04-25T07:13:54;8.30;99.90
3100;DHT22;1560;52.746;13.474;2023-04-25T07:16:22;8.30;99.90
3100;DHT22;1560;52.746;13.474;2023-04-25T07:18:51;8.30;99.90
3100;DHT22;1560;52.746;13.474;2023-04-25T07:23:58;8.30;99.90
3100;DHT22;1560;52.746;13.474;2023-04-25T07:26:27;8.20;99.90
3100;DHT22;1560;52.746;13.474;2023-04-25T07:28:56;8.20;99.90
3100;DHT22;1560;52.746;13.474;2023-04-25T07:34:02;8.20;99.90
3100;DHT22;1560;52.746;13.474;2023-04-25T07:36:31;8.30;99.90
3100;DHT22;1560;52.746;13.474;2023-04-25T07:39:00;8.30;99.90
3100;DHT22;1560;52.746;13.474;2023-04-25T07:41:30;8.30;99.90
3100;DHT22;1560;52.746;13.474;2023-04-25T07:43:59;8.30;99.90
3100;DHT22;1560;52.746;13.474;2023-04-25T07:46:27;8.30;99.90
3100;DHT22;1560;52.746;13.474;2023-04-25T07:48:56;8.30;99.90
3100;DHT22;1560;52.746;13.474;2023-04-25T07:51:25;8.10;99.90
3100;DHT22;1560;52.746;13.474;2023-04-25T08:08:03;8.00;99.90
3100;DHT22;1560;52.746;13.474;2023-04-25T08:10:34;8.00;99.90
3100;DHT22;1560;52.746;13.474;2023-04-25T08:13:02;7.90;99.90
3100;DHT22;1560;52.746;13.474;2023-04-25T08:15:31;7.90;99.90
3100;DHT22;1560;52.746;13.474;2023-04-25T08:18:00;7.90;99.90
3100;DHT22;1560;52.746;13.474;2023-04-25T08:20:29;8.10;99.90
3100;DHT22;1560;52.746;13.474;2023-04-25T08:22:58;8.20;99.90
3100;DHT22;1560;52.746;13.474;2023-04-25T08:25:27;8.30;99.90
3100;DHT22;1560;52.746;13.474;2023-04-25T08:27:56;8.50;99.90
3100;DHT22;1560;52.746;13.474;2023-04-25T08:30:27;8.60;99.90
3100;DHT22;1560;52.746;13.474;2023-04-25T08:32:56;8.70;99.90
3100;DHT22;1560;52.746;13.474;2023-04-25T08:35:25;8.80;68.80
3100;DHT22;1560;52.746;13.474;2023-04-25T08:37:54;8.80;1.00
3100;DHT22;1560;52.746;13.474;2023-04-25T08:40:23;8.90;99.90
3100;DHT22;1560;52.746;13.474;2023-04-25T08:42:57;9.10;99.90
3100;DHT22;1560;52.746;13.474;2023-04-25T08:48:04;9.40;99.90
3100;DHT22;1560;52.746;13.474;2023-04-25T08:50:35;9.30;99.90
3100;DHT22;1560;52.746;13.474;2023-04-25T08:53:05;9.30;99.90
3100;DHT22;1560;52.746;13.474;2023-04-25T08:55:37;9.20;99.90
3100;DHT22;1560;52.746;13.474;2023-04-25T08:58:06;9.30;99.90
3100;DHT22;1560;52.746;13.474;2023-04-25T09:00:36;9.60;99.90
3100;DHT22;1560;52.746;13.474;2023-04-25T09:03:05;10.00;99.90
3100;DHT22;1560;52.746;13.474;2023-04-25T09:05:34;10.20;99.90
3100;DHT22;1560;52.746;13.474;2023-04-25T09:08:03;10.10;99.90
3100;DHT22;1560;52.746;13.474;2023-04-25T09:10:33;10.00;99.90
3100;DHT22;1560;52.746;13.474;2023-04-25T09:13:06;10.20;99.90
3100;DHT22;1560;52.746;13.474;2023-04-25T09:15:50;10.60;99.90
3100;DHT22;1560;52.746;13.474;2023-04-25T09:18:26;10.80;99.90
3100;DHT22;1560;52.746;13.474;2023-04-25T09:20:56;11.00;99.90
3100;DHT22;1560;52.746;13.474;2023-04-25T09:26:22;11.10;99.90
3100;DHT22;1560;52.746;13.474;2023-04-25T09:28:58;11.20;99.90
3100;DHT22;1560;52.746;13.474;2023-04-25T09:31:28;11.30;99.90
3100;DHT22;1560;52.746;13.474;2023-04-25T09:34:00;11.30;99.90
3100;DHT22;1560;52.746;13.474;2023-04-25T09:36:30;11.20;99.90
3100;DHT22;1560;52.746;13.474;2023-04-25T09:39:00;11.10;99.90
3100;DHT22;1560;52.746;13.474;2023-04-25T09:41:29;11.30;99.90
3100;DHT22;1560;52.746;13.474;2023-04-25T09:43:58;11.40;97.90
3100;DHT22;1560;52.746;13.474;2023-04-25T09:49:12;11.80;98.10
3100;DHT22;1560;52.746;13.474;2023-04-25T09:51:42;11.90;95.10
3100;DHT22;1560;52.746;13.474;2023-04-25T09:54:13;11.80;95.80
3100;DHT22;1560;52.746;13.474;2023-04-25T09:56:42;11.60;95.60
3100;DHT22;1560;52.746;13.474;2023-04-25T10:12:22;11.50;95.90
3100;DHT22;1560;52.746;13.474;2023-04-25T10:14:52;11.00;95.10
3100;DHT22;1560;52.746;13.474;2023-04-25T10:17:21;10.80;94.80
3100;DHT22;1560;52.746;13.474;2023-04-25T10:19:51;10.80;94.40
3100;DHT22;1560;52.746;13.474;2023-04-25T10:22:31;10.50;92.60
3100;DHT22;1560;52.746;13.474;2023-04-25T10:24:54;10.60;96.20
3100;DHT22;1560;52.746;13.474;2023-04-25T10:27:24;10.40;95.80
3100;DHT22;1560;52.746;13.474;2023-04-25T10:30:02;10.70;95.70
3100;DHT22;1560;52.746;13.474;2023-04-25T10:35:13;10.90;96.30
3100;DHT22;1560;52.746;13.474;2023-04-25T10:37:59;10.80;93.20
3100;DHT22;1560;52.746;13.474;2023-04-25T10:43:33;10.60;94.20
3100;DHT22;1560;52.746;13.474;2023-04-25T10:46:03;10.60;97.10
3100;DHT22;1560;52.746;13.474;2023-04-25T10:48:36;10.80;94.60
3100;DHT22;1560;52.746;13.474;2023-04-25T10:51:08;10.90;94.70
3100;DHT22;1560;52.746;13.474;2023-04-25T10:53:37;10.80;94.70
3100;DHT22;1560;52.746;13.474;2023-04-25T10:56:11;10.70;95.00
3100;DHT22;1560;52.746;13.474;2023-04-25T10:58:44;10.60;93.30
3100;DHT22;1560;52.746;13.474;2023-04-25T11:01:14;10.50;92.10
3100;DHT22;1560;52.746;13.474;2023-04-25T11:03:44;10.40;91.90
3100;DHT22;1560;52.746;13.474;2023-04-25T11:06:19;10.40;93.30
3100;DHT22;1560;52.746;13.474;2023-04-25T11:11:28;10.40;92.90
3100;DHT22;1560;52.746;13.474;2023-04-25T11:13:57;10.30;93.80
3100;DHT22;1560;52.746;13.474;2023-04-25T11:16:29;10.20;91.00
3100;DHT22;1560;52.746;13.474;2023-04-25T11:18:59;10.20;91.40
3100;DHT22;1560;52.746;13.474;2023-04-25T11:21:28;10.10;91.50
3100;DHT22;1560;52.746;13.474;2023-04-25T11:24:00;10.10;88.50
3100;DHT22;1560;52.746;13.474;2023-04-25T11:26:30;10.10;89.00
3100;DHT22;1560;52.746;13.474;2023-04-25T11:28:59;10.00;92.30
3100;DHT22;1560;52.746;13.474;2023-04-25T11:34:06;10.20;91.80
3100;DHT22;1560;52.746;13.474;2023-04-25T11:36:37;10.40;92.80
3100;DHT22;1560;52.746;13.474;2023-04-25T11:39:08;10.20;92.00
3100;DHT22;1560;52.746;13.474;2023-04-25T11:41:38;10.10;89.80
3100;DHT22;1560;52.746;13.474;2023-04-25T11:44:07;10.00;91.80
3100;DHT22;1560;52.746;13.474;2023-04-25T11:49:14;10.10;93.00
3100;DHT22;1560;52.746;13.474;2023-04-25T11:51:48;10.10;90.70
3100;DHT22;1560;52.746;13.474;2023-04-25T11:54:17;10.10;92.00
3100;DHT22;1560;52.746;13.474;2023-04-25T11:56:46;10.30;92.10
3100;DHT22;1560;52.746;13.474;2023-04-25T11:59:15;10.40;92.90
3100;DHT22;1560;52.746;13.474;2023-04-25T12:01:49;10.50;91.90
3100;DHT22;1560;52.746;13.474;2023-04-25T12:04:19;10.60;91.30
3100;DHT22;1560;52.746;13.474;2023-04-25T12:06:51;10.50;89.40
3100;DHT22;1560;52.746;13.474;2023-04-25T12:09:21;10.50;87.80
3100;DHT22;1560;52.746;13.474;2023-04-25T12:14:30;10.30;85.20
3100;DHT22;1560;52.746;13.474;2023-04-25T12:17:01;10.30;90.00
3100;DHT22;1560;52.746;13.474;2023-04-25T12:19:35;10.40;84.80
3100;DHT22;1560;52.746;13.474;2023-04-25T12:22:18;10.40;86.30
3100;DHT22;1560;52.746;13.474;2023-04-25T12:24:39;10.40;83.90
3100;DHT22;1560;52.746;13.474;2023-04-25T12:27:08;10.10;89.80
3100;DHT22;1560;52.746;13.474;2023-04-25T12:29:37;10.10;92.50
3100;DHT22;1560;52.746;13.474;2023-04-25T12:32:06;10.10;90.30
3100;DHT22;1560;52.746;13.474;2023-04-25T12:34:35;10.20;92.90
3100;DHT22;1560;52.746;13.474;2023-04-25T12:37:04;10.20;93.10
3100;DHT22;1560;52.746;13.474;2023-04-25T12:39:36;10.30;93.80
3100;DHT22;1560;52.746;13.474;2023-04-25T12:44:44;10.20;90.90
3100;DHT22;1560;52.746;13.474;2023-04-25T12:47:14;10.10;92.10
3100;DHT22;1560;52.746;13.474;2023-04-25T12:49:43;10.10;91.40
3100;DHT22;1560;52.746;13.474;2023-04-25T12:52:12;10.00;92.90
3100;DHT22;1560;52.746;13.474;2023-04-25T12:54:41;10.00;91.80
3100;DHT22;1560;52.746;13.474;2023-04-25T12:57:10;10.00;92.90
3100;DHT22;1560;52.746;13.474;2023-04-25T13:02:19;10.00;93.50
3100;DHT22;1560;52.746;13.474;2023-04-25T13:04:48;10.00;93.10
3100;DHT22;1560;52.746;13.474;2023-04-25T13:07:19;10.00;92.40
3100;DHT22;1560;52.746;13.474;2023-04-25T13:09:48;9.90;97.40
3100;DHT22;1560;52.746;13.474;2023-04-25T13:12:17;10.00;96.20
3100;DHT22;1560;52.746;13.474;2023-04-25T13:14:46;10.10;96.20
3100;DHT22;1560;52.746;13.474;2023-04-25T13:17:15;10.00;94.30
3100;DHT22;1560;52.746;13.474;2023-04-25T13:22:23;10.10;95.60
3100;DHT22;1560;52.746;13.474;2023-04-25T13:24:52;10.10;94.40
3100;DHT22;1560;52.746;13.474;2023-04-25T13:27:20;10.00;94.90
3100;DHT22;1560;52.746;13.474;2023-04-25T13:32:28;10.00;94.60
3100;DHT22;1560;52.746;13.474;2023-04-25T13:34:56;9.90;96.40
3100;DHT22;1560;52.746;13.474;2023-04-25T13:37:25;9.90;96.60
3100;DHT22;1560;52.746;13.474;2023-04-25T13:39:54;10.00;95.80
3100;DHT22;1560;52.746;13.474;2023-04-25T13:42:27;10.00;97.10
3100;DHT22;1560;52.746;13.474;2023-04-25T13:47:34;9.90;98.00
3100;DHT22;1560;52.746;13.474;2023-04-25T13:50:03;9.80;99.90
3100;DHT22;1560;52.746;13.474;2023-04-25T13:52:33;9.70;99.00
3100;DHT22;1560;52.746;13.474;2023-04-25T13:57:39;9.50;99.90
3100;DHT22;1560;52.746;13.474;2023-04-25T14:00:10;9.30;99.90
3100;DHT22;1560;52.746;13.474;2023-04-25T14:02:39;9.30;99.90
3100;DHT22;1560;52.746;13.474;2023-04-25T14:05:09;9.30;99.90
3100;DHT22;1560;52.746;13.474;2023-04-25T14:07:38;9.40;99.90
3100;DHT22;1560;52.746;13.474;2023-04-25T14:10:09;9.40;99.90
3100;DHT22;1560;52.746;13.474;2023-04-25T14:12:38;9.30;99.90
3100;DHT22;1560;52.746;13.474;2023-04-25T14:15:08;9.30;99.90
3100;DHT22;1560;52.746;13.474;2023-04-25T14:17:38;9.40;99.90
3100;DHT22;1560;52.746;13.474;2023-04-25T14:20:26;9.40;99.90
3100;DHT22;1560;52.746;13.474;2023-04-25T14:22:55;9.40;99.90
3100;DHT22;1560;52.746;13.474;2023-04-25T14:25:25;9.40;99.90
3100;DHT22;1560;52.746;13.474;2023-04-25T14:30:34;9.40;99.90
3100;DHT22;1560;52.746;13.474;2023-04-25T14:35:41;9.40;99.90
3100;DHT22;1560;52.746;13.474;2023-04-25T14:38:11;9.50;99.90
3100;DHT22;1560;52.746;13.474;2023-04-25T14:43:18;9.50;99.90
3100;DHT22;1560;52.746;13.474;2023-04-25T14:45:47;9.60;99.90
3100;DHT22;1560;52.746;13.474;2023-04-25T14:48:16;9.70;99.90
3100;DHT22;1560;52.746;13.474;2023-04-25T14:50:47;9.70;99.90
3100;DHT22;1560;52.746;13.474;2023-04-25T14:53:18;9.80;99.90
3100;DHT22;1560;52.746;13.474;2023-04-25T14:58:27;9.90;99.90
3100;DHT22;1560;52.746;13.474;2023-04-25T15:00:58;9.90;99.90
3100;DHT22;1560;52.746;13.474;2023-04-25T15:03:27;10.00;99.30
3100;DHT22;1560;52.746;13.474;2023-04-25T15:08:34;10.00;98.50
3100;DHT22;1560;52.746;13.474;2023-04-25T15:11:03;10.10;99.80
3100;DHT22;1560;52.746;13.474;2023-04-25T15:13:32;10.10;99.90
3100;DHT22;1560;52.746;13.474;2023-04-25T15:29:01;10.10;97.40
3100;DHT22;1560;52.746;13.474;2023-04-25T15:31:31;9.90;95.40
3100;DHT22;1560;52.746;13.474;2023-04-25T15:36:38;9.80;94.90
3100;DHT22;1560;52.746;13.474;2023-04-25T15:39:07;9.70;95.50
3100;DHT22;1560;52.746;13.474;2023-04-25T15:44:14;9.70;95.70
3100;DHT22;1560;52.746;13.474;2023-04-25T15:46:43;9.60;97.40
3100;DHT22;1560;52.746;13.474;2023-04-25T15:49:13;9.60;96.50
3100;DHT22;1560;52.746;13.474;2023-04-25T15:51:42;9.60;96.60
3100;DHT22;1560;52.746;13.474;2023-04-25T15:56:48;9.50;95.90
3100;DHT22;1560;52.746;13.474;2023-04-25T15:59:17;9.40;96.20
3100;DHT22;1560;52.746;13.474;2023-04-25T16:01:46;9.30;98.20
3100;DHT22;1560;52.746;13.474;2023-04-25T16:04:15;9.30;98.90
3100;DHT22;1560;52.746;13.474;2023-04-25T16:09:23;9.40;99.00
3100;DHT22;1560;52.746;13.474;2023-04-25T16:11:52;9.40;99.50
3100;DHT22;1560;52.746;13.474;2023-04-25T16:14:20;9.40;99.50
3100;DHT22;1560;52.746;13.474;2023-04-25T16:19:27;9.40;99.90
3100;DHT22;1560;52.746;13.474;2023-04-25T16:21:56;9.30;99.90
3100;DHT22;1560;52.746;13.474;2023-04-25T16:24:25;9.20;99.90
3100;DHT22;1560;52.746;13.474;2023-04-25T16:29:32;9.20;99.90
3100;DHT22;1560;52.746;13.474;2023-04-25T16:32:01;9.10;99.90
3100;DHT22;1560;52.746;13.474;2023-04-25T16:34:30;9.10;99.90
3100;DHT22;1560;52.746;13.474;2023-04-25T16:36:59;9.20;99.90
3100;DHT22;1560;52.746;13.474;2023-04-25T16:39:28;9.20;99.90
3100;DHT22;1560;52.746;13.474;2023-04-25T16:41:57;9.20;99.90
3100;DHT22;1560;52.746;13.474;2023-04-25T16:44:26;9.20;99.90
3100;DHT22;1560;52.746;13.474;2023-04-25T16:49:33;9.20;99.90
3100;DHT22;1560;52.746;13.474;2023-04-25T16:52:02;9.20;99.90
3100;DHT22;1560;52.746;13.474;2023-04-25T16:54:31;9.30;99.90
3100;DHT22;1560;52.746;13.474;2023-04-25T16:57:00;9.40;99.90
3100;DHT22;1560;52.746;13.474;2023-04-25T16:59:31;9.40;99.90
3100;DHT22;1560;52.746;13.474;2023-04-25T17:01:59;9.50;99.90
3100;DHT22;1560;52.746;13.474;2023-04-25T17:04:29;9.50;99.90
3100;DHT22;1560;52.746;13.474;2023-04-25T17:06:58;9.50;99.90
3100;DHT22;1560;52.746;13.474;2023-04-25T17:09:27;9.40;99.90
3100;DHT22;1560;52.746;13.474;2023-04-25T17:11:56;9.30;99.90
3100;DHT22;1560;52.746;13.474;2023-04-25T17:14:25;9.20;99.90
3100;DHT22;1560;52.746;13.474;2023-04-25T17:16:54;9.10;99.90
3100;DHT22;1560;52.746;13.474;2023-04-25T17:19:23;9.10;99.90
3100;DHT22;1560;52.746;13.474;2023-04-25T17:21:52;9.10;99.90
3100;DHT22;1560;52.746;13.474;2023-04-25T17:24:22;9.00;99.90
3100;DHT22;1560;52.746;13.474;2023-04-25T17:27:01;8.90;99.90
3100;DHT22;1560;52.746;13.474;2023-04-25T17:29:30;8.90;99.90
3100;DHT22;1560;52.746;13.474;2023-04-25T17:32:00;9.00;99.90
3100;DHT22;1560;52.746;13.474;2023-04-25T17:34:29;8.90;99.90
3100;DHT22;1560;52.746;13.474;2023-04-25T17:36:58;9.00;99.90
3100;DHT22;1560;52.746;13.474;2023-04-25T17:39:27;9.00;99.90
3100;DHT22;1560;52.746;13.474;2023-04-25T17:41:56;9.00;99.90
3100;DHT22;1560;52.746;13.474;2023-04-25T17:44:25;9.00;99.90
3100;DHT22;1560;52.746;13.474;2023-04-25T17:49:33;8.90;99.90
3100;DHT22;1560;52.746;13.474;2023-04-25T17:52:02;8.90;99.90
3100;DHT22;1560;52.746;13.474;2023-04-25T17:54:32;8.90;99.90
3100;DHT22;1560;52.746;13.474;2023-04-25T17:57:00;8.90;99.90
3100;DHT22;1560;52.746;13.474;2023-04-25T17:59:31;8.80;99.90
3100;DHT22;1560;52.746;13.474;2023-04-25T18:02:01;8.80;99.90
3100;DHT22;1560;52.746;13.474;2023-04-25T18:04:30;8.60;99.90
3100;DHT22;1560;52.746;13.474;2023-04-25T18:06:59;8.60;99.90
3100;DHT22;1560;52.746;13.474;2023-04-25T18:09:28;8.60;99.90
3100;DHT22;1560;52.746;13.474;2023-04-25T18:11:59;8.60;99.90
3100;DHT22;1560;52.746;13.474;2023-04-25T18:17:06;8.60;99.90
3100;DHT22;1560;52.746;13.474;2023-04-25T18:19:35;8.50;99.90
3100;DHT22;1560;52.746;13.474;2023-04-25T18:22:04;8.50;99.90
3100;DHT22;1560;52.746;13.474;2023-04-25T18:27:12;8.30;99.90
3100;DHT22;1560;52.746;13.474;2023-04-25T18:29:48;8.30;99.90
3100;DHT22;1560;52.746;13.474;2023-04-25T18:34:55;8.10;99.90
3100;DHT22;1560;52.746;13.474;2023-04-25T18:40:08;8.00;99.90
3100;DHT22;1560;52.746;13.474;2023-04-25T18:42:39;8.00;99.90
3100;DHT22;1560;52.746;13.474;2023-04-25T18:45:10;8.00;99.90
3100;DHT22;1560;52.746;13.474;2023-04-25T18:47:40;7.90;99.90
3100;DHT22;1560;52.746;13.474;2023-04-25T18:50:10;7.90;99.90
3100;DHT22;1560;52.746;13.474;2023-04-25T18:52:39;7.80;99.90
3100;DHT22;1560;52.746;13.474;2023-04-25T18:57:47;7.80;99.90
3100;DHT22;1560;52.746;13.474;2023-04-25T19:00:16;7.70;99.90
3100;DHT22;1560;52.746;13.474;2023-04-25T19:02:45;7.70;99.90
3100;DHT22;1560;52.746;13.474;2023-04-25T19:07:52;7.60;99.90
3100;DHT22;1560;52.746;13.474;2023-04-25T19:10:20;7.50;99.90
3100;DHT22;1560;52.746;13.474;2023-04-25T19:15:27;7.40;99.90
3100;DHT22;1560;52.746;13.474;2023-04-25T19:17:56;7.40;99.90
3100;DHT22;1560;52.746;13.474;2023-04-25T19:20:25;7.50;99.90
3100;DHT22;1560;52.746;13.474;2023-04-25T19:22:53;7.40;99.90
3100;DHT22;1560;52.746;13.474;2023-04-25T19:25:22;7.30;99.90
3100;DHT22;1560;52.746;13.474;2023-04-25T19:27:53;7.40;99.90
3100;DHT22;1560;52.746;13.474;2023-04-25T19:30:22;7.30;99.90
3100;DHT22;1560;52.746;13.474;2023-04-25T19:32:51;7.20;99.90
3100;DHT22;1560;52.746;13.474;2023-04-25T19:35:20;7.20;99.90
3100;DHT22;1560;52.746;13.474;2023-04-25T19:37:50;7.20;99.90
3100;DHT22;1560;52.746;13.474;2023-04-25T19:40:19;7.20;99.90
3100;DHT22;1560;52.746;13.474;2023-04-25T19:42:49;7.30;99.90
3100;DHT22;1560;52.746;13.474;2023-04-25T19:45:19;7.20;99.90
3100;DHT22;1560;52.746;13.474;2023-04-25T19:47:48;7.20;99.90
3100;DHT22;1560;52.746;13.474;2023-04-25T19:50:17;7.20;99.90
3100;DHT22;1560;52.746;13.474;2023-04-25T19:52:48;7.20;99.90
3100;DHT22;1560;52.746;13.474;2023-04-25T19:57:57;7.10;99.90
3100;DHT22;1560;52.746;13.474;2023-04-25T20:00:26;7.10;99.90
3100;DHT22;1560;52.746;13.474;2023-04-25T20:02:55;7.10;99.90